sensor_id;sensor_type;location;lat;lon;timestamp;temperature;humidity
3488;DHT22;38546;48.170;11.724;2022-10-16T00:00:54;13.70;99.90
3488;DHT22;38546;48.170;11.724;2022-10-16T00:03:44;13.60;99.90
3488;DHT22;38546;48.170;11.724;2022-10-16T00:06:34;13.60;99.90
3488;DHT22;38546;48.170;11.724;2022-10-16T00:09:23;13.50;99.90
3488;DHT22;38546;48.170;11.724;2022-10-16T00:12:13;13.60;99.90
3488;DHT22;38546;48.170;11.724;2022-10-16T00:15:03;13.50;99.90
3488;DHT22;38546;48.170;11.724;2022-10-16T00:17:53;13.50;99.90
3488;DHT22;38546;48.170;11.724;2022-10-16T00:20:42;13.50;99.90
3488;DHT22;38546;48.170;11.724;2022-10-16T00:23:33;13.40;99.90
3488;DHT22;38546;48.170;11.724;2022-10-16T00:26:22;13.40;99.90
3488;DHT22;38546;48.170;11.724;2022-10-16T00:29:12;13.40;99.90
3488;DHT22;38546;48.170;11.724;2022-10-16T00:32:01;13.40;99.90
3488;DHT22;38546;48.170;11.724;2022-10-16T00:34:51;13.40;99.90
3488;DHT22;38546;48.170;11.724;2022-10-16T00:37:43;13.30;99.90
3488;DHT22;38546;48.170;11.724;2022-10-16T00:40:32;13.30;99.90
3488;DHT22;38546;48.170;11.724;2022-10-16T00:43:44;13.30;99.90
3488;DHT22;38546;48.170;11.724;2022-10-16T00:46:44;13.30;99.90
3488;DHT22;38546;48.170;11.724;2022-10-16T00:49:33;13.30;99.90
3488;DHT22;38546;48.170;11.724;2022-10-16T00:52:22;13.20;99.90
3488;DHT22;38546;48.170;11.724;2022-10-16T00:55:12;13.30;99.90
3488;DHT22;38546;48.170;11.724;2022-10-16T00:58:01;13.30;99.90
3488;DHT22;38546;48.170;11.724;2022-10-16T01:00:51;13.30;99.90
3488;DHT22;38546;48.170;11.724;2022-10-16T01:03:40;13.20;99.90
3488;DHT22;38546;48.170;11.724;2022-10-16T01:07:02;13.20;99.90
3488;DHT22;38546;48.170;11.724;2022-10-16T01:11:25;13.20;99.90
3488;DHT22;38546;48.170;11.724;2022-10-16T01:14:50;13.20;99.90
3488;DHT22;38546;48.170;11.724;2022-10-16T01:24:31;13.20;99.90
3488;DHT22;38546;48.170;11.724;2022-10-16T01:27:29;13.10;99.90
3488;DHT22;38546;48.170;11.724;2022-10-16T01:30:28;13.10;99.90
3488;DHT22;38546;48.170;11.724;2022-10-16T01:33:23;13.10;99.90
3488;DHT22;38546;48.170;11.724;2022-10-16T01:36:33;13.10;99.90
3488;DHT22;38546;48.170;11.724;2022-10-16T01:39:36;13.00;99.90
3488;DHT22;38546;48.170;11.724;2022-10-16T01:42:39;13.00;99.90
3488;DHT22;38546;48.170;11.724;2022-10-16T01:45:43;13.00;99.90
3488;DHT22;38546;48.170;11.724;2022-10-16T01:48:34;13.00;99.90
3488;DHT22;38546;48.170;11.724;2022-10-16T01:51:25;13.00;99.90
3488;DHT22;38546;48.170;11.724;2022-10-16T01:54:16;12.90;99.90
3488;DHT22;38546;48.170;11.724;2022-10-16T01:57:07;13.00;99.90
3488;DHT22;38546;48.170;11.724;2022-10-16T02:00:04;12.90;99.90
3488;DHT22;38546;48.170;11.724;2022-10-16T02:02:58;12.90;99.90
3488;DHT22;38546;48.170;11.724;2022-10-16T02:05:56;12.80;99.90
3488;DHT22;38546;48.170;11.724;2022-10-16T02:08:46;12.80;99.90
3488;DHT22;38546;48.170;11.724;2022-10-16T02:11:36;12.80;99.90
3488;DHT22;38546;48.170;11.724;2022-10-16T02:14:26;12.80;99.90
3488;DHT22;38546;48.170;11.724;2022-10-16T02:17:16;12.80;99.90
3488;DHT22;38546;48.170;11.724;2022-10-16T02:20:07;12.80;99.90
3488;DHT22;38546;48.170;11.724;2022-10-16T02:22:58;12.80;99.90
3488;DHT22;38546;48.170;11.724;2022-10-16T02:25:49;12.80;99.90
3488;DHT22;38546;48.170;11.724;2022-10-16T02:28:44;12.80;99.90
3488;DHT22;38546;48.170;11.724;2022-10-16T02:31:39;12.80;99.90
3488;DHT22;38546;48.170;11.724;2022-10-16T02:34:32;12.80;99.90
3488;DHT22;38546;48.170;11.724;2022-10-16T02:37:22;12.80;99.90
3488;DHT22;38546;48.170;11.724;2022-10-16T02:40:11;12.80;99.90
3488;DHT22;38546;48.170;11.724;2022-10-16T02:43:03;12.80;99.90
3488;DHT22;38546;48.170;11.724;2022-10-16T02:45:53;12.80;99.90
3488;DHT22;38546;48.170;11.724;2022-10-16T02:48:42;12.70;99.90
3488;DHT22;38546;48.170;11.724;2022-10-16T02:51:32;12.70;99.90
3488;DHT22;38546;48.170;11.724;2022-10-16T02:54:21;12.70;99.90
3488;DHT22;38546;48.170;11.724;2022-10-16T02:57:11;12.60;99.90
3488;DHT22;38546;48.170;11.724;2022-10-16T03:00:02;12.60;99.90
3488;DHT22;38546;48.170;11.724;2022-10-16T03:02:53;12.60;99.90
3488;DHT22;38546;48.170;11.724;2022-10-16T03:05:44;12.50;99.90
3488;DHT22;38546;48.170;11.724;2022-10-16T03:08:34;12.40;99.90
3488;DHT22;38546;48.170;11.724;2022-10-16T03:11:23;12.40;99.90
3488;DHT22;38546;48.170;11.724;2022-10-16T03:14:12;12.40;99.90
3488;DHT22;38546;48.170;11.724;2022-10-16T03:17:01;12.40;99.90
3488;DHT22;38546;48.170;11.724;2022-10-16T03:19:51;12.30;99.90
3488;DHT22;38546;48.170;11.724;2022-10-16T03:22:41;12.20;99.90
3488;DHT22;38546;48.170;11.724;2022-10-16T03:25:30;12.20;99.90
3488;DHT22;38546;48.170;11.724;2022-10-16T03:28:19;12.20;99.90
3488;DHT22;38546;48.170;11.724;2022-10-16T03:31:08;12.20;99.90
3488;DHT22;38546;48.170;11.724;2022-10-16T03:33:58;12.20;99.90
3488;DHT22;38546;48.170;11.724;2022-10-16T03:36:48;12.10;99.90
3488;DHT22;38546;48.170;11.724;2022-10-16T03:39:37;12.10;99.90
3488;DHT22;38546;48.170;11.724;2022-10-16T03:42:27;12.10;99.90
3488;DHT22;38546;48.170;11.724;2022-10-16T03:45:17;12.10;99.90
3488;DHT22;38546;48.170;11.724;2022-10-16T03:48:06;12.10;99.90
3488;DHT22;38546;48.170;11.724;2022-10-16T03:50:55;12.20;99.90
3488;DHT22;38546;48.170;11.724;2022-10-16T03:53:45;12.20;99.90
3488;DHT22;38546;48.170;11.724;2022-10-16T03:56:34;12.20;99.90
3488;DHT22;38546;48.170;11.724;2022-10-16T03:59:23;12.30;99.90
3488;DHT22;38546;48.170;11.724;2022-10-16T04:02:13;12.30;99.90
3488;DHT22;38546;48.170;11.724;2022-10-16T04:05:03;12.40;99.90
3488;DHT22;38546;48.170;11.724;2022-10-16T04:07:53;12.40;99.90
3488;DHT22;38546;48.170;11.724;2022-10-16T04:10:43;12.50;99.90
3488;DHT22;38546;48.170;11.724;2022-10-16T04:13:33;12.50;99.90
3488;DHT22;38546;48.170;11.724;2022-10-16T04:16:23;12.50;99.90
3488;DHT22;38546;48.170;11.724;2022-10-16T04:19:13;12.60;99.90
3488;DHT22;38546;48.170;11.724;2022-10-16T04:22:02;12.60;99.90
3488;DHT22;38546;48.170;11.724;2022-10-16T04:24:52;12.70;99.90
3488;DHT22;38546;48.170;11.724;2022-10-16T04:27:41;12.70;99.90
3488;DHT22;38546;48.170;11.724;2022-10-16T04:30:30;12.70;99.90
3488;DHT22;38546;48.170;11.724;2022-10-16T04:33:19;12.70;99.90
3488;DHT22;38546;48.170;11.724;2022-10-16T04:36:10;12.80;99.90
3488;DHT22;38546;48.170;11.724;2022-10-16T04:39:00;12.80;99.90
3488;DHT22;38546;48.170;11.724;2022-10-16T04:41:49;12.80;99.90
3488;DHT22;38546;48.170;11.724;2022-10-16T04:44:39;12.80;99.90
3488;DHT22;38546;48.170;11.724;2022-10-16T04:47:29;12.90;99.90
3488;DHT22;38546;48.170;11.724;2022-10-16T04:50:18;12.90;99.90
3488;DHT22;38546;48.170;11.724;2022-10-16T04:53:07;12.90;99.90
3488;DHT22;38546;48.170;11.724;2022-10-16T04:55:58;12.90;99.90
3488;DHT22;38546;48.170;11.724;2022-10-16T04:58:47;12.90;99.90
3488;DHT22;38546;48.170;11.724;2022-10-16T05:01:37;12.90;99.90
3488;DHT22;38546;48.170;11.724;2022-10-16T05:04:26;12.90;99.90
3488;DHT22;38546;48.170;11.724;2022-10-16T05:07:15;13.00;99.90
3488;DHT22;38546;48.170;11.724;2022-10-16T05:10:05;13.00;99.90
3488;DHT22;38546;48.170;11.724;2022-10-16T05:12:55;13.00;99.90
3488;DHT22;38546;48.170;11.724;2022-10-16T05:15:48;13.00;99.90
3488;DHT22;38546;48.170;11.724;2022-10-16T05:18:39;13.00;99.90
3488;DHT22;38546;48.170;11.724;2022-10-16T05:21:28;13.00;99.90
3488;DHT22;38546;48.170;11.724;2022-10-16T05:24:18;13.00;99.90
3488;DHT22;38546;48.170;11.724;2022-10-16T05:27:07;13.00;99.90
3488;DHT22;38546;48.170;11.724;2022-10-16T05:29:56;13.10;99.90
3488;DHT22;38546;48.170;11.724;2022-10-16T05:32:48;13.10;99.90
3488;DHT22;38546;48.170;11.724;2022-10-16T05:35:38;13.10;99.90
3488;DHT22;38546;48.170;11.724;2022-10-16T05:38:27;13.10;99.90
3488;DHT22;38546;48.170;11.724;2022-10-16T05:41:16;13.10;99.90
3488;DHT22;38546;48.170;11.724;2022-10-16T05:44:11;13.10;99.90
3488;DHT22;38546;48.170;11.724;2022-10-16T05:47:00;13.20;99.90
3488;DHT22;38546;48.170;11.724;2022-10-16T05:49:50;13.20;99.90
3488;DHT22;38546;48.170;11.724;2022-10-16T05:52:40;13.20;99.90
3488;DHT22;38546;48.170;11.724;2022-10-16T05:55:29;13.20;99.90
3488;DHT22;38546;48.170;11.724;2022-10-16T05:58:18;13.30;99.90
3488;DHT22;38546;48.170;11.724;2022-10-16T06:01:12;13.30;99.90
3488;DHT22;38546;48.170;11.724;2022-10-16T06:04:03;13.30;99.90
3488;DHT22;38546;48.170;11.724;2022-10-16T06:06:52;13.30;99.90
3488;DHT22;38546;48.170;11.724;2022-10-16T06:09:47;13.30;99.90
3488;DHT22;38546;48.170;11.724;2022-10-16T06:12:40;13.30;99.90
3488;DHT22;38546;48.170;11.724;2022-10-16T06:15:29;13.30;99.90
3488;DHT22;38546;48.170;11.724;2022-10-16T06:18:18;13.20;99.90
3488;DHT22;38546;48.170;11.724;2022-10-16T06:21:12;13.20;99.90
3488;DHT22;38546;48.170;11.724;2022-10-16T06:24:04;13.20;99.90
3488;DHT22;38546;48.170;11.724;2022-10-16T06:26:53;13.20;99.90
3488;DHT22;38546;48.170;11.724;2022-10-16T06:29:43;13.20;99.90
3488;DHT22;38546;48.170;11.724;2022-10-16T06:32:34;13.20;99.90
3488;DHT22;38546;48.170;11.724;2022-10-16T06:35:23;13.20;99.90
3488;DHT22;38546;48.170;11.724;2022-10-16T06:38:12;13.30;99.90
3488;DHT22;38546;48.170;11.724;2022-10-16T06:41:01;13.30;99.90
3488;DHT22;38546;48.170;11.724;2022-10-16T06:43:51;13.30;99.90
3488;DHT22;38546;48.170;11.724;2022-10-16T06:46:40;13.30;99.90
3488;DHT22;38546;48.170;11.724;2022-10-16T06:49:30;13.40;99.90
3488;DHT22;38546;48.170;11.724;2022-10-16T06:52:19;13.40;99.90
3488;DHT22;38546;48.170;11.724;2022-10-16T06:55:08;13.40;99.90
3488;DHT22;38546;48.170;11.724;2022-10-16T06:57:58;13.50;99.90
3488;DHT22;38546;48.170;11.724;2022-10-16T07:00:46;13.50;99.90
3488;DHT22;38546;48.170;11.724;2022-10-16T07:03:38;13.50;99.90
3488;DHT22;38546;48.170;11.724;2022-10-16T07:06:31;13.60;99.90
3488;DHT22;38546;48.170;11.724;2022-10-16T07:09:22;13.60;99.90
3488;DHT22;38546;48.170;11.724;2022-10-16T07:12:11;13.60;99.90
3488;DHT22;38546;48.170;11.724;2022-10-16T07:15:01;13.60;99.90
3488;DHT22;38546;48.170;11.724;2022-10-16T07:17:50;13.70;99.90
3488;DHT22;38546;48.170;11.724;2022-10-16T07:20:39;13.70;99.90
3488;DHT22;38546;48.170;11.724;2022-10-16T07:23:29;13.70;99.90
3488;DHT22;38546;48.170;11.724;2022-10-16T07:26:18;13.70;99.90
3488;DHT22;38546;48.170;11.724;2022-10-16T07:29:14;13.80;99.90
3488;DHT22;38546;48.170;11.724;2022-10-16T07:32:04;13.80;99.90
3488;DHT22;38546;48.170;11.724;2022-10-16T07:34:53;13.90;99.90
3488;DHT22;38546;48.170;11.724;2022-10-16T07:37:47;14.00;99.90
3488;DHT22;38546;48.170;11.724;2022-10-16T07:40:36;14.10;99.90
3488;DHT22;38546;48.170;11.724;2022-10-16T07:43:26;14.20;99.90
3488;DHT22;38546;48.170;11.724;2022-10-16T07:46:16;14.30;99.90
3488;DHT22;38546;48.170;11.724;2022-10-16T07:49:06;14.60;99.90
3488;DHT22;38546;48.170;11.724;2022-10-16T07:51:57;14.80;99.90
3488;DHT22;38546;48.170;11.724;2022-10-16T07:54:46;15.00;99.90
3488;DHT22;38546;48.170;11.724;2022-10-16T07:57:35;15.30;99.90
3488;DHT22;38546;48.170;11.724;2022-10-16T08:00:24;15.50;99.90
3488;DHT22;38546;48.170;11.724;2022-10-16T08:03:13;15.80;99.90
3488;DHT22;38546;48.170;11.724;2022-10-16T08:06:03;16.00;99.90
3488;DHT22;38546;48.170;11.724;2022-10-16T08:08:54;16.10;99.90
3488;DHT22;38546;48.170;11.724;2022-10-16T08:11:44;16.20;99.90
3488;DHT22;38546;48.170;11.724;2022-10-16T08:14:33;16.20;99.90
3488;DHT22;38546;48.170;11.724;2022-10-16T08:17:22;16.30;99.90
3488;DHT22;38546;48.170;11.724;2022-10-16T08:20:12;16.40;99.90
3488;DHT22;38546;48.170;11.724;2022-10-16T08:23:02;16.60;99.90
3488;DHT22;38546;48.170;11.724;2022-10-16T08:25:55;16.70;99.90
3488;DHT22;38546;48.170;11.724;2022-10-16T08:28:46;16.80;99.90
3488;DHT22;38546;48.170;11.724;2022-10-16T08:31:39;16.90;99.90
3488;DHT22;38546;48.170;11.724;2022-10-16T08:34:29;17.10;99.90
3488;DHT22;38546;48.170;11.724;2022-10-16T08:37:19;17.30;99.90
3488;DHT22;38546;48.170;11.724;2022-10-16T08:40:20;17.40;99.90
3488;DHT22;38546;48.170;11.724;2022-10-16T08:43:36;17.60;99.90
3488;DHT22;38546;48.170;11.724;2022-10-16T08:50:13;18.00;99.90
3488;DHT22;38546;48.170;11.724;2022-10-16T08:53:25;18.20;99.90
3488;DHT22;38546;48.170;11.724;2022-10-16T08:56:20;18.40;99.90
3488;DHT22;38546;48.170;11.724;2022-10-16T08:59:10;18.60;99.90
3488;DHT22;38546;48.170;11.724;2022-10-16T09:02:01;18.80;99.90
3488;DHT22;38546;48.170;11.724;2022-10-16T09:05:13;19.10;99.90
3488;DHT22;38546;48.170;11.724;2022-10-16T09:10:57;19.30;99.90
3488;DHT22;38546;48.170;11.724;2022-10-16T09:20:00;20.20;99.90
3488;DHT22;38546;48.170;11.724;2022-10-16T09:23:19;20.50;99.90
3488;DHT22;38546;48.170;11.724;2022-10-16T09:26:16;20.60;99.90
3488;DHT22;38546;48.170;11.724;2022-10-16T09:29:14;20.70;99.90
3488;DHT22;38546;48.170;11.724;2022-10-16T09:32:15;20.90;99.90
3488;DHT22;38546;48.170;11.724;2022-10-16T09:35:19;21.00;99.90
3488;DHT22;38546;48.170;11.724;2022-10-16T09:38:28;21.20;99.90
3488;DHT22;38546;48.170;11.724;2022-10-16T09:41:22;21.30;99.90
3488;DHT22;38546;48.170;11.724;2022-10-16T09:44:31;21.50;99.90
3488;DHT22;38546;48.170;11.724;2022-10-16T09:47:23;21.50;99.90
3488;DHT22;38546;48.170;11.724;2022-10-16T09:51:37;21.60;99.90
3488;DHT22;38546;48.170;11.724;2022-10-16T09:54:27;21.70;99.90
3488;DHT22;38546;48.170;11.724;2022-10-16T09:57:16;21.80;99.90
3488;DHT22;38546;48.170;11.724;2022-10-16T10:00:10;21.90;99.90
3488;DHT22;38546;48.170;11.724;2022-10-16T10:02:59;21.90;99.90
3488;DHT22;38546;48.170;11.724;2022-10-16T10:05:49;22.00;99.90
3488;DHT22;38546;48.170;11.724;2022-10-16T10:08:41;22.10;99.90
3488;DHT22;38546;48.170;11.724;2022-10-16T10:11:45;22.30;99.90
3488;DHT22;38546;48.170;11.724;2022-10-16T10:14:44;22.30;99.90
3488;DHT22;38546;48.170;11.724;2022-10-16T10:17:49;22.50;99.90
3488;DHT22;38546;48.170;11.724;2022-10-16T10:20:41;22.50;99.90
3488;DHT22;38546;48.170;11.724;2022-10-16T10:23:30;22.60;99.90
3488;DHT22;38546;48.170;11.724;2022-10-16T10:26:24;22.90;99.90
3488;DHT22;38546;48.170;11.724;2022-10-16T10:29:41;22.90;99.90
3488;DHT22;38546;48.170;11.724;2022-10-16T10:39:43;22.80;99.90
3488;DHT22;38546;48.170;11.724;2022-10-16T10:42:49;22.50;99.90
3488;DHT22;38546;48.170;11.724;2022-10-16T10:45:46;22.70;99.90
3488;DHT22;38546;48.170;11.724;2022-10-16T10:54:53;22.50;99.90
3488;DHT22;38546;48.170;11.724;2022-10-16T10:58:12;22.50;99.90
3488;DHT22;38546;48.170;11.724;2022-10-16T11:01:15;22.60;99.90
3488;DHT22;38546;48.170;11.724;2022-10-16T11:09:22;22.90;99.90
3488;DHT22;38546;48.170;11.724;2022-10-16T11:12:37;22.80;99.90
3488;DHT22;38546;48.170;11.724;2022-10-16T11:15:36;22.80;99.90
3488;DHT22;38546;48.170;11.724;2022-10-16T11:18:45;22.80;99.90
3488;DHT22;38546;48.170;11.724;2022-10-16T11:22:42;22.80;99.90
3488;DHT22;38546;48.170;11.724;2022-10-16T11:26:00;23.00;99.90
3488;DHT22;38546;48.170;11.724;2022-10-16T11:28:54;23.20;99.90
3488;DHT22;38546;48.170;11.724;2022-10-16T11:31:52;23.40;99.90
3488;DHT22;38546;48.170;11.724;2022-10-16T11:34:57;23.30;99.90
3488;DHT22;38546;48.170;11.724;2022-10-16T11:37:53;23.10;99.90
3488;DHT22;38546;48.170;11.724;2022-10-16T11:40:48;23.00;99.90
3488;DHT22;38546;48.170;11.724;2022-10-16T11:43:43;23.10;99.90
3488;DHT22;38546;48.170;11.724;2022-10-16T11:46:40;23.10;99.90
3488;DHT22;38546;48.170;11.724;2022-10-16T11:49:34;23.10;99.90
3488;DHT22;38546;48.170;11.724;2022-10-16T11:57:13;23.20;99.90
3488;DHT22;38546;48.170;11.724;2022-10-16T12:01:38;23.30;99.90
3488;DHT22;38546;48.170;11.724;2022-10-16T12:04:46;23.30;99.90
3488;DHT22;38546;48.170;11.724;2022-10-16T12:07:46;23.30;99.90
3488;DHT22;38546;48.170;11.724;2022-10-16T12:11:37;23.40;99.90
3488;DHT22;38546;48.170;11.724;2022-10-16T12:14:39;23.60;99.60
3488;DHT22;38546;48.170;11.724;2022-10-16T12:17:47;23.60;99.90
3488;DHT22;38546;48.170;11.724;2022-10-16T12:20:37;23.60;99.90
3488;DHT22;38546;48.170;11.724;2022-10-16T12:23:27;23.50;99.50
3488;DHT22;38546;48.170;11.724;2022-10-16T12:26:34;23.60;99.20
3488;DHT22;38546;48.170;11.724;2022-10-16T12:29:45;24.00;98.60
3488;DHT22;38546;48.170;11.724;2022-10-16T12:32:39;24.00;98.50
3488;DHT22;38546;48.170;11.724;2022-10-16T12:35:34;23.90;98.20
3488;DHT22;38546;48.170;11.724;2022-10-16T12:38:50;23.70;97.90
3488;DHT22;38546;48.170;11.724;2022-10-16T12:41:41;23.70;98.10
3488;DHT22;38546;48.170;11.724;2022-10-16T12:44:35;23.60;97.60
3488;DHT22;38546;48.170;11.724;2022-10-16T12:48:02;23.60;97.00
3488;DHT22;38546;48.170;11.724;2022-10-16T12:50:53;23.70;96.40
3488;DHT22;38546;48.170;11.724;2022-10-16T12:53:42;23.60;97.40
3488;DHT22;38546;48.170;11.724;2022-10-16T12:58:09;23.80;96.90
3488;DHT22;38546;48.170;11.724;2022-10-16T13:01:29;23.80;96.40
3488;DHT22;38546;48.170;11.724;2022-10-16T13:14:05;23.70;96.20
3488;DHT22;38546;48.170;11.724;2022-10-16T13:17:37;23.60;96.50
3488;DHT22;38546;48.170;11.724;2022-10-16T13:22:33;23.70;97.10
3488;DHT22;38546;48.170;11.724;2022-10-16T13:25:46;23.90;96.90
3488;DHT22;38546;48.170;11.724;2022-10-16T13:28:50;23.70;97.10
3488;DHT22;38546;48.170;11.724;2022-10-16T13:31:40;23.90;97.00
3488;DHT22;38546;48.170;11.724;2022-10-16T13:34:30;24.00;96.10
3488;DHT22;38546;48.170;11.724;2022-10-16T13:37:22;23.70;96.80
3488;DHT22;38546;48.170;11.724;2022-10-16T13:40:23;23.70;96.80
3488;DHT22;38546;48.170;11.724;2022-10-16T13:43:13;23.70;96.90
3488;DHT22;38546;48.170;11.724;2022-10-16T13:46:06;23.60;96.80
3488;DHT22;38546;48.170;11.724;2022-10-16T13:49:05;23.40;96.50
3488;DHT22;38546;48.170;11.724;2022-10-16T13:52:00;23.30;97.20
3488;DHT22;38546;48.170;11.724;2022-10-16T13:54:50;23.20;97.30
3488;DHT22;38546;48.170;11.724;2022-10-16T13:57:41;23.20;98.10
3488;DHT22;38546;48.170;11.724;2022-10-16T14:00:30;23.00;97.20
3488;DHT22;38546;48.170;11.724;2022-10-16T14:03:21;22.90;98.30
3488;DHT22;38546;48.170;11.724;2022-10-16T14:06:14;22.90;98.00
3488;DHT22;38546;48.170;11.724;2022-10-16T14:09:29;23.20;97.30
3488;DHT22;38546;48.170;11.724;2022-10-16T14:12:19;23.30;97.00
3488;DHT22;38546;48.170;11.724;2022-10-16T14:15:17;23.50;97.20
3488;DHT22;38546;48.170;11.724;2022-10-16T14:18:19;23.40;97.00
3488;DHT22;38546;48.170;11.724;2022-10-16T14:21:16;23.30;97.90
3488;DHT22;38546;48.170;11.724;2022-10-16T14:24:13;23.20;98.10
3488;DHT22;38546;48.170;11.724;2022-10-16T14:27:38;23.10;97.80
3488;DHT22;38546;48.170;11.724;2022-10-16T14:30:29;23.20;97.10
3488;DHT22;38546;48.170;11.724;2022-10-16T14:33:33;23.30;97.20
3488;DHT22;38546;48.170;11.724;2022-10-16T14:36:23;23.20;98.30
3488;DHT22;38546;48.170;11.724;2022-10-16T14:39:19;23.00;98.20
3488;DHT22;38546;48.170;11.724;2022-10-16T14:42:16;22.90;98.40
3488;DHT22;38546;48.170;11.724;2022-10-16T14:45:09;22.80;98.20
3488;DHT22;38546;48.170;11.724;2022-10-16T14:48:03;22.90;98.00
3488;DHT22;38546;48.170;11.724;2022-10-16T14:50:55;22.80;98.40
3488;DHT22;38546;48.170;11.724;2022-10-16T14:53:46;22.90;98.60
3488;DHT22;38546;48.170;11.724;2022-10-16T14:56:51;22.80;99.20
3488;DHT22;38546;48.170;11.724;2022-10-16T14:59:42;22.70;99.50
3488;DHT22;38546;48.170;11.724;2022-10-16T15:02:35;22.70;99.90
3488;DHT22;38546;48.170;11.724;2022-10-16T15:05:28;22.80;99.90
3488;DHT22;38546;48.170;11.724;2022-10-16T15:08:17;22.90;99.90
3488;DHT22;38546;48.170;11.724;2022-10-16T15:11:14;22.80;99.90
3488;DHT22;38546;48.170;11.724;2022-10-16T15:14:05;22.60;99.90
3488;DHT22;38546;48.170;11.724;2022-10-16T15:16:54;22.30;99.90
3488;DHT22;38546;48.170;11.724;2022-10-16T15:19:43;22.20;99.90
3488;DHT22;38546;48.170;11.724;2022-10-16T15:22:33;22.10;99.90
3488;DHT22;38546;48.170;11.724;2022-10-16T15:25:49;22.00;99.90
3488;DHT22;38546;48.170;11.724;2022-10-16T15:28:42;21.90;99.90
3488;DHT22;38546;48.170;11.724;2022-10-16T15:31:32;21.90;99.90
3488;DHT22;38546;48.170;11.724;2022-10-16T15:34:22;21.80;99.90
3488;DHT22;38546;48.170;11.724;2022-10-16T15:37:11;21.60;99.90
3488;DHT22;38546;48.170;11.724;2022-10-16T15:40:02;21.50;99.90
3488;DHT22;38546;48.170;11.724;2022-10-16T15:42:52;21.50;99.90
3488;DHT22;38546;48.170;11.724;2022-10-16T15:45:41;21.50;99.90
3488;DHT22;38546;48.170;11.724;2022-10-16T15:48:32;21.60;99.90
3488;DHT22;38546;48.170;11.724;2022-10-16T15:51:21;21.60;99.90
3488;DHT22;38546;48.170;11.724;2022-10-16T15:54:11;21.50;99.90
3488;DHT22;38546;48.170;11.724;2022-10-16T15:57:01;21.30;99.90
3488;DHT22;38546;48.170;11.724;2022-10-16T15:59:50;21.10;99.90
3488;DHT22;38546;48.170;11.724;2022-10-16T16:02:40;21.20;99.90
3488;DHT22;38546;48.170;11.724;2022-10-16T16:05:30;21.20;99.90
3488;DHT22;38546;48.170;11.724;2022-10-16T16:08:22;21.20;99.90
3488;DHT22;38546;48.170;11.724;2022-10-16T16:11:13;20.90;99.90
3488;DHT22;38546;48.170;11.724;2022-10-16T16:14:07;20.80;99.90
3488;DHT22;38546;48.170;11.724;2022-10-16T16:16:58;20.70;99.90
3488;DHT22;38546;48.170;11.724;2022-10-16T16:19:48;20.60;99.90
3488;DHT22;38546;48.170;11.724;2022-10-16T16:22:38;20.50;99.90
3488;DHT22;38546;48.170;11.724;2022-10-16T16:25:27;20.30;99.90
3488;DHT22;38546;48.170;11.724;2022-10-16T16:28:17;20.20;99.90
3488;DHT22;38546;48.170;11.724;2022-10-16T16:31:07;20.20;99.90
3488;DHT22;38546;48.170;11.724;2022-10-16T16:33:57;20.20;99.90
3488;DHT22;38546;48.170;11.724;2022-10-16T16:36:47;20.10;99.90
3488;DHT22;38546;48.170;11.724;2022-10-16T16:39:36;19.90;99.90
3488;DHT22;38546;48.170;11.724;2022-10-16T16:42:26;19.80;99.90
3488;DHT22;38546;48.170;11.724;2022-10-16T16:45:16;19.60;99.90
3488;DHT22;38546;48.170;11.724;2022-10-16T16:48:05;19.50;99.90
3488;DHT22;38546;48.170;11.724;2022-10-16T16:50:56;19.40;99.90
3488;DHT22;38546;48.170;11.724;2022-10-16T16:53:47;19.30;99.90
3488;DHT22;38546;48.170;11.724;2022-10-16T16:56:37;19.20;99.90
3488;DHT22;38546;48.170;11.724;2022-10-16T16:59:27;19.00;99.90
3488;DHT22;38546;48.170;11.724;2022-10-16T17:02:16;18.90;99.90
3488;DHT22;38546;48.170;11.724;2022-10-16T17:05:06;18.80;99.90
3488;DHT22;38546;48.170;11.724;2022-10-16T17:07:56;18.60;99.90
3488;DHT22;38546;48.170;11.724;2022-10-16T17:10:45;18.50;99.90
3488;DHT22;38546;48.170;11.724;2022-10-16T17:13:39;18.40;99.90
3488;DHT22;38546;48.170;11.724;2022-10-16T17:16:32;18.30;99.90
3488;DHT22;38546;48.170;11.724;2022-10-16T17:19:22;18.20;99.90
3488;DHT22;38546;48.170;11.724;2022-10-16T17:22:12;18.10;99.90
3488;DHT22;38546;48.170;11.724;2022-10-16T17:25:01;18.00;99.90
3488;DHT22;38546;48.170;11.724;2022-10-16T17:27:52;17.90;99.90
3488;DHT22;38546;48.170;11.724;2022-10-16T17:30:42;17.80;99.90
3488;DHT22;38546;48.170;11.724;2022-10-16T17:33:32;17.70;99.90
3488;DHT22;38546;48.170;11.724;2022-10-16T17:36:22;17.60;99.90
3488;DHT22;38546;48.170;11.724;2022-10-16T17:39:14;17.50;99.90
3488;DHT22;38546;48.170;11.724;2022-10-16T17:42:05;17.40;99.90
3488;DHT22;38546;48.170;11.724;2022-10-16T17:44:54;17.40;99.90
3488;DHT22;38546;48.170;11.724;2022-10-16T17:47:43;17.30;99.90
3488;DHT22;38546;48.170;11.724;2022-10-16T17:50:33;17.30;99.90
3488;DHT22;38546;48.170;11.724;2022-10-16T17:53:22;17.30;99.90
3488;DHT22;38546;48.170;11.724;2022-10-16T17:56:13;17.30;99.90
3488;DHT22;38546;48.170;11.724;2022-10-16T17:59:03;17.20;99.90
3488;DHT22;38546;48.170;11.724;2022-10-16T18:01:52;17.20;99.90
3488;DHT22;38546;48.170;11.724;2022-10-16T18:05:28;17.10;99.90
3488;DHT22;38546;48.170;11.724;2022-10-16T18:08:18;17.20;99.90
3488;DHT22;38546;48.170;11.724;2022-10-16T18:11:09;17.10;99.90
3488;DHT22;38546;48.170;11.724;2022-10-16T18:13:59;17.10;99.90
3488;DHT22;38546;48.170;11.724;2022-10-16T18:16:48;17.00;99.90
3488;DHT22;38546;48.170;11.724;2022-10-16T18:19:38;17.00;99.90
3488;DHT22;38546;48.170;11.724;2022-10-16T18:22:28;17.00;99.90
3488;DHT22;38546;48.170;11.724;2022-10-16T18:25:20;17.00;99.90
3488;DHT22;38546;48.170;11.724;2022-10-16T18:28:10;16.90;99.90
3488;DHT22;38546;48.170;11.724;2022-10-16T18:31:01;16.90;99.90
3488;DHT22;38546;48.170;11.724;2022-10-16T18:33:54;16.90;99.90
3488;DHT22;38546;48.170;11.724;2022-10-16T18:36:44;16.90;99.90
3488;DHT22;38546;48.170;11.724;2022-10-16T18:39:34;16.90;99.90
3488;DHT22;38546;48.170;11.724;2022-10-16T18:42:23;16.90;99.90
3488;DHT22;38546;48.170;11.724;2022-10-16T18:45:12;16.90;99.90
3488;DHT22;38546;48.170;11.724;2022-10-16T18:48:02;16.90;99.90
3488;DHT22;38546;48.170;11.724;2022-10-16T18:50:51;16.80;99.90
3488;DHT22;38546;48.170;11.724;2022-10-16T18:53:43;16.80;99.90
3488;DHT22;38546;48.170;11.724;2022-10-16T18:56:34;16.80;99.90
3488;DHT22;38546;48.170;11.724;2022-10-16T18:59:23;16.80;99.90
3488;DHT22;38546;48.170;11.724;2022-10-16T19:02:14;16.70;99.90
3488;DHT22;38546;48.170;11.724;2022-10-16T19:05:03;16.70;99.90
3488;DHT22;38546;48.170;11.724;2022-10-16T19:07:53;16.70;99.90
3488;DHT22;38546;48.170;11.724;2022-10-16T19:10:43;16.60;99.90
3488;DHT22;38546;48.170;11.724;2022-10-16T19:13:32;16.60;99.90
3488;DHT22;38546;48.170;11.724;2022-10-16T19:16:28;16.50;99.90